Time;durP1;ratioP1;P1;durP2;ratioP2;P2;SDS_P1;SDS_P2;PMS_P1;PMS_P2;Temp;Humidity;BMP_temperature;BMP_pressure;BME280_temperature;BME280_humidity;BME280_pressure;Samples;Min_cycle;Max_cycle;Signal;HPM_P1;HPM_P2
2022/10/15 00:00:05;;;;;;;11.18;7.72;;;;;;;12.08;100.00;100543.81;5057629;28;20044;-76
2022/10/15 00:02:30;;;;;;;11.15;7.97;;;;;;;12.07;100.00;100529.19;5058297;28;20132;-76
2022/10/15 00:04:56;;;;;;;12.23;8.23;;;;;;;12.04;100.00;100530.34;5060071;28;20128;-76
2022/10/15 00:07:22;;;;;;;11.77;8.10;;;;;;;12.03;100.00;100530.50;5055631;28;20052;-76
2022/10/15 00:09:47;;;;;;;11.48;7.50;;;;;;;12.01;100.00;100527.28;5056859;28;20033;-76
2022/10/15 00:12:13;;;;;;;12.63;7.80;;;;;;;11.98;100.00;100523.25;5036571;28;20073;-76
2022/10/15 00:14:38;;;;;;;11.98;7.75;;;;;;;11.98;100.00;100525.00;5053714;28;20036;-76
2022/10/15 00:17:03;;;;;;;11.57;7.90;;;;;;;11.96;100.00;100516.59;5069846;28;20036;-76
2022/10/15 00:19:29;;;;;;;11.57;7.53;;;;;;;11.94;100.00;100510.75;5052507;28;20397;-76
2022/10/15 00:21:54;;;;;;;12.77;7.68;;;;;;;11.91;100.00;100506.72;5051765;28;20028;-76
2022/10/15 00:24:20;;;;;;;10.95;7.60;;;;;;;11.91;100.00;100504.13;5057722;28;20029;-76
2022/10/15 00:26:45;;;;;;;11.15;8.25;;;;;;;11.89;100.00;100500.84;5062540;28;20036;-76
2022/10/15 00:29:11;;;;;;;9.13;6.97;;;;;;;11.87;100.00;100503.63;5058489;28;20044;-77
2022/10/15 00:31:36;;;;;;;11.40;8.10;;;;;;;11.86;100.00;100506.38;5062844;28;20509;-78
2022/10/15 00:34:04;;;;;;;12.00;7.82;;;;;;;11.82;100.00;100507.72;5055416;28;20276;-76
2022/10/15 00:36:32;;;;;;;13.70;8.13;;;;;;;11.81;100.00;100509.50;5059497;28;20040;-77
2022/10/15 00:38:58;;;;;;;10.00;7.10;;;;;;;11.80;100.00;100501.88;5048621;28;20028;-77
2022/10/15 00:41:31;;;;;;;11.65;8.00;;;;;;;11.79;100.00;100505.44;5062685;28;20130;-76
2022/10/15 00:44:21;;;;;;;13.30;9.63;;;;;;;11.77;100.00;100505.66;5064607;28;20032;-76
2022/10/15 00:46:50;;;;;;;11.80;8.02;;;;;;;11.76;100.00;100503.22;5048736;28;20716;-76
2022/10/15 00:49:39;;;;;;;13.10;8.45;;;;;;;11.74;100.00;100503.38;5060493;28;20032;-76
2022/10/15 00:52:08;;;;;;;11.50;8.15;;;;;;;11.72;100.00;100505.34;5076201;28;20040;-75
2022/10/15 00:54:54;;;;;;;10.15;7.47;;;;;;;11.69;100.00;100503.88;5048436;28;20071;-76
2022/10/15 00:57:20;;;;;;;10.35;7.50;;;;;;;11.69;100.00;100516.06;5060361;28;20029;-77
2022/10/15 00:59:51;;;;;;;12.27;8.63;;;;;;;11.66;100.00;100503.44;5056280;28;20064;-76
2022/10/15 01:02:18;;;;;;;14.00;8.77;;;;;;;11.64;100.00;100507.94;5038043;28;20064;-77
2022/10/15 01:04:45;;;;;;;14.18;7.95;;;;;;;11.63;100.00;100509.75;5056207;28;20498;-76
2022/10/15 01:07:11;;;;;;;12.30;7.63;;;;;;;11.62;100.00;100518.53;5039301;28;20029;-77
2022/10/15 01:09:37;;;;;;;11.70;8.40;;;;;;;11.61;100.00;100521.28;5055229;28;20045;-77
2022/10/15 01:12:10;;;;;;;11.77;8.88;;;;;;;11.59;100.00;100525.84;5047719;28;20032;-77
2022/10/15 01:14:50;;;;;;;12.88;9.43;;;;;;;11.54;100.00;100521.16;5064755;28;20037;-76
2022/10/15 01:17:36;;;;;;;15.18;8.73;;;;;;;11.53;100.00;100516.13;5075260;28;20580;-76
2022/10/15 01:20:35;;;;;;;14.35;10.05;;;;;;;11.53;100.00;100521.31;5042837;28;20044;-76
2022/10/15 01:23:52;;;;;;;16.60;10.95;;;;;;;11.55;100.00;100532.38;5053894;28;20037;-76
2022/10/15 01:26:39;;;;;;;17.17;10.15;;;;;;;11.57;100.00;100538.19;5025322;28;20063;-76
2022/10/15 01:29:48;;;;;;;16.83;10.68;;;;;;;11.57;100.00;100533.81;5056382;28;20429;-76
2022/10/15 01:32:28;;;;;;;16.02;10.68;;;;;;;11.57;100.00;100522.63;5071471;28;20648;-77
2022/10/15 01:35:09;;;;;;;17.50;11.95;;;;;;;11.59;100.00;100525.84;5055560;28;20032;-76
2022/10/15 01:38:02;;;;;;;18.42;11.77;;;;;;;11.59;100.00;100525.84;5082650;28;20508;-76
2022/10/15 01:40:38;;;;;;;18.92;12.57;;;;;;;11.59;100.00;100531.06;5056091;28;20075;-76
2022/10/15 01:43:11;;;;;;;19.60;11.70;;;;;;;11.59;100.00;100531.84;5083162;28;20138;-77
2022/10/15 01:45:52;;;;;;;19.58;12.57;;;;;;;11.60;100.00;100528.28;5068611;28;20029;-76
2022/10/15 01:48:28;;;;;;;17.70;11.65;;;;;;;11.60;100.00;100519.66;5059772;28;20032;-77
2022/10/15 01:51:00;;;;;;;22.40;14.15;;;;;;;11.63;100.00;100516.75;5059981;28;20032;-76
2022/10/15 01:53:28;;;;;;;18.17;12.05;;;;;;;11.63;100.00;100514.16;5056030;28;20129;-76
2022/10/15 01:56:05;;;;;;;18.88;12.18;;;;;;;11.62;100.00;100518.53;5059443;28;20349;-76
2022/10/15 01:58:31;;;;;;;17.38;11.77;;;;;;;11.63;100.00;100512.34;5070594;28;21693;-77
2022/10/15 02:00:58;;;;;;;21.52;12.43;;;;;;;11.63;100.00;100514.94;5069339;28;20035;-77
2022/10/15 02:03:25;;;;;;;18.08;11.13;;;;;;;11.63;100.00;100519.34;5055548;28;20040;-76
2022/10/15 02:05:59;;;;;;;19.15;12.02;;;;;;;11.64;100.00;100513.97;5039269;28;20102;-77
2022/10/15 02:08:34;;;;;;;18.38;12.05;;;;;;;11.64;100.00;100519.16;5053378;28;20059;-77
2022/10/15 02:11:04;;;;;;;19.98;12.32;;;;;;;11.65;100.00;100522.56;5054240;28;20037;-77
2022/10/15 02:13:57;;;;;;;16.88;10.93;;;;;;;11.65;100.00;100512.19;5062512;28;20037;-76
2022/10/15 02:17:07;;;;;;;18.17;11.20;;;;;;;11.64;100.00;100513.16;5069628;28;20040;-78
2022/10/15 02:19:47;;;;;;;16.80;11.13;;;;;;;11.64;100.00;100506.19;5017096;28;20520;-77
2022/10/15 02:22:27;;;;;;;20.55;12.50;;;;;;;11.65;100.00;100505.19;5003011;28;20132;-76
2022/10/15 02:25:03;;;;;;;21.70;13.02;;;;;;;11.67;100.00;100510.22;5040892;28;20044;-76
2022/10/15 02:27:31;;;;;;;19.30;13.05;;;;;;;11.69;100.00;100510.84;5042622;28;20094;-76
2022/10/15 02:30:01;;;;;;;21.63;13.35;;;;;;;11.72;100.00;100514.94;5058506;28;20132;-77
2022/10/15 02:32:29;;;;;;;21.85;14.20;;;;;;;11.74;100.00;100518.97;5067229;28;20040;-76
2022/10/15 02:34:55;;;;;;;23.60;14.20;;;;;;;11.75;100.00;100511.97;5063279;28;20344;-77
2022/10/15 02:37:24;;;;;;;21.55;13.98;;;;;;;11.74;100.00;100507.78;5062566;28;20495;-77
2022/10/15 02:39:50;;;;;;;20.83;12.75;;;;;;;11.74;100.00;100513.75;5070107;28;20024;-78
2022/10/15 02:42:17;;;;;;;19.35;13.07;;;;;;;11.74;100.00;100523.34;5052666;28;20028;-76
2022/10/15 02:44:42;;;;;;;22.38;13.52;;;;;;;11.76;100.00;100522.19;5053948;28;20028;-76
2022/10/15 02:47:08;;;;;;;20.70;13.00;;;;;;;11.75;100.00;100522.34;5054593;28;20083;-76
2022/10/15 02:49:34;;;;;;;21.83;13.70;;;;;;;11.76;100.00;100526.59;5067012;28;20098;-77
2022/10/15 02:52:01;;;;;;;21.33;13.82;;;;;;;11.77;100.00;100530.78;5054588;28;20490;-76
2022/10/15 02:54:27;;;;;;;27.00;14.77;;;;;;;11.78;100.00;100528.03;5072640;28;20035;-76
2022/10/15 02:56:52;;;;;;;25.00;13.77;;;;;;;11.78;100.00;100535.03;5043876;28;20031;-76
2022/10/15 02:59:19;;;;;;;24.75;15.48;;;;;;;11.80;100.00;100528.66;5037874;28;20037;-76
2022/10/15 03:01:45;;;;;;;27.15;16.30;;;;;;;11.86;100.00;100517.59;5054692;28;20028;-76
2022/10/15 03:04:13;;;;;;;25.58;15.02;;;;;;;11.85;100.00;100507.38;5032963;28;20471;-77
2022/10/15 03:06:39;;;;;;;27.85;16.05;;;;;;;11.84;100.00;100501.34;5053895;28;20033;-76
2022/10/15 03:09:04;;;;;;;26.77;15.93;;;;;;;11.88;100.00;100510.44;5050442;28;20032;-76
2022/10/15 03:11:31;;;;;;;22.48;14.93;;;;;;;11.86;100.00;100504.59;5067785;28;20122;-76
2022/10/15 03:13:56;;;;;;;25.40;15.13;;;;;;;11.86;100.00;100502.00;5041617;28;20485;-76
2022/10/15 03:16:22;;;;;;;25.48;15.07;;;;;;;11.87;100.00;100492.44;5040026;28;20051;-77
2022/10/15 03:18:48;;;;;;;22.95;14.40;;;;;;;11.85;100.00;100492.59;5041142;28;20052;-76
2022/10/15 03:21:14;;;;;;;24.58;15.07;;;;;;;11.85;100.00;100476.22;5051042;28;20498;-76
2022/10/15 03:23:41;;;;;;;24.75;15.40;;;;;;;11.85;100.00;100481.41;5051595;28;20032;-77
2022/10/15 03:26:14;;;;;;;;;;;;;;;11.82;100.00;100489.53;5060540;28;20385;-76
2022/10/15 03:28:39;;;;;;;22.30;13.00;;;;;;;11.80;100.00;100487.09;5059176;28;20381;-76
2022/10/15 03:31:05;;;;;;;27.17;16.25;;;;;;;11.80;100.00;100476.72;5037036;28;20090;-76
2022/10/15 03:33:31;;;;;;;23.20;15.40;;;;;;;11.79;100.00;100484.66;5047670;28;20801;-77
2022/10/15 03:35:57;;;;;;;24.33;14.63;;;;;;;11.80;100.00;100487.09;5053928;28;20394;-77
2022/10/15 03:38:23;;;;;;;25.98;15.23;;;;;;;11.80;100.00;100488.91;5058751;28;20028;-77
2022/10/15 03:40:51;;;;;;;23.13;13.65;;;;;;;11.77;100.00;100484.03;5055790;28;20117;-77
2022/10/15 03:43:26;;;;;;;25.10;13.82;;;;;;;11.77;100.00;100484.88;5057466;28;20035;-77
2022/10/15 03:45:52;;;;;;;25.23;15.63;;;;;;;11.78;100.00;100480.47;5051337;28;20669;-76
2022/10/15 03:48:21;;;;;;;29.58;16.67;;;;;;;11.83;100.00;100486.78;5074207;28;20063;-77
2022/10/15 03:50:46;;;;;;;25.08;15.95;;;;;;;11.85;100.00;100482.19;5054622;28;20025;-77
2022/10/15 03:53:13;;;;;;;27.80;16.83;;;;;;;11.93;100.00;100483.97;5055488;28;20029;-76
2022/10/15 03:55:39;;;;;;;26.67;16.20;;;;;;;11.89;100.00;100485.28;5060282;28;20090;-76
2022/10/15 03:58:04;;;;;;;24.30;14.95;;;;;;;11.91;100.00;100490.34;5056278;28;20032;-77
2022/10/15 04:00:30;;;;;;;25.02;14.90;;;;;;;11.88;100.00;100492.25;5079938;28;20024;-78
2022/10/15 04:02:59;;;;;;;22.75;14.13;;;;;;;11.87;100.00;100502.81;5058835;28;20616;-78
2022/10/15 04:05:27;;;;;;;21.48;13.77;;;;;;;11.85;100.00;100502.19;5074408;28;20060;-76
2022/10/15 04:08:01;;;;;;;22.60;14.25;;;;;;;11.83;100.00;100493.75;5055516;28;20037;-76
2022/10/15 04:10:30;;;;;;;26.08;16.38;;;;;;;11.87;100.00;100500.22;5057701;28;20618;-77
2022/10/15 04:12:55;;;;;;;26.88;14.95;;;;;;;11.85;100.00;100497.00;5062275;28;20040;-76
2022/10/15 04:15:21;;;;;;;24.48;14.88;;;;;;;11.83;100.00;100498.97;5067443;28;20036;-76
2022/10/15 04:17:55;;;;;;;22.77;14.20;;;;;;;11.81;100.00;100501.72;5056598;28;20029;-77
2022/10/15 04:20:22;;;;;;;23.73;14.77;;;;;;;11.80;100.00;100507.88;5068528;28;20458;-77
2022/10/15 04:22:47;;;;;;;20.90;13.43;;;;;;;11.79;100.00;100497.66;5043274;28;20023;-76
2022/10/15 04:25:14;;;;;;;29.63;17.60;;;;;;;11.79;100.00;100503.69;5058874;28;20401;-77
2022/10/15 04:27:39;;;;;;;24.73;16.00;;;;;;;11.82;100.00;100510.31;5061097;28;20182;-78
2022/10/15 04:30:09;;;;;;;25.70;14.90;;;;;;;11.80;100.00;100507.88;5059980;28;20021;-76
2022/10/15 04:32:38;;;;;;;25.73;15.13;;;;;;;11.80;100.00;100509.69;5056043;28;20123;-77
2022/10/15 04:35:04;;;;;;;27.00;15.32;;;;;;;11.81;100.00;100509.50;5061364;28;20102;-76
2022/10/15 04:38:08;;;;;;;24.05;14.82;;;;;;;11.81;100.00;100501.72;5051823;28;20048;-76
2022/10/15 04:41:10;;;;;;;25.73;15.35;;;;;;;11.81;100.00;100503.47;5058231;28;20047;-77
2022/10/15 04:43:58;;;;;;;30.20;16.38;;;;;;;11.91;100.00;100498.13;5061720;28;20485;-77
2022/10/15 04:46:28;;;;;;;30.58;17.23;;;;;;;11.90;100.00;100486.91;5058902;28;20025;-76
2022/10/15 04:48:56;;;;;;;26.95;14.60;;;;;;;11.84;100.00;100482.38;5048954;28;20032;-76
2022/10/15 04:51:23;;;;;;;23.95;14.95;;;;;;;11.84;100.00;100485.78;5046351;28;20036;-77
2022/10/15 04:54:07;;;;;;;27.10;15.63;;;;;;;11.83;100.00;100480.78;5061179;28;20105;-77
2022/10/15 04:56:35;;;;;;;24.35;14.75;;;;;;;11.83;100.00;100473.78;5071109;28;20081;-76
2022/10/15 04:59:01;;;;;;;29.52;15.85;;;;;;;11.80;100.00;100473.31;5056847;28;20377;-77
2022/10/15 05:01:30;;;;;;;25.70;15.45;;;;;;;11.79;100.00;100464.72;5057754;28;20386;-76
2022/10/15 05:04:02;;;;;;;22.05;13.30;;;;;;;11.79;100.00;100475.09;5054306;28;20637;-77
2022/10/15 05:06:31;;;;;;;25.88;15.48;;;;;;;11.77;100.00;100476.25;5083296;28;20033;-77
2022/10/15 05:09:04;;;;;;;21.67;12.75;;;;;;;11.73;100.00;100478.38;5056263;28;20481;-77
2022/10/15 05:11:34;;;;;;;22.67;13.43;;;;;;;11.72;100.00;100479.38;5059459;28;20040;-77
2022/10/15 05:14:01;;;;;;;24.08;14.05;;;;;;;11.68;100.00;100478.91;5069558;28;20032;-78
2022/10/15 05:16:28;;;;;;;21.23;13.23;;;;;;;11.67;100.00;100484.25;5052493;28;20068;-77
2022/10/15 05:18:57;;;;;;;24.95;15.45;;;;;;;11.73;100.00;100485.34;5054969;28;20043;-77
2022/10/15 05:21:23;;;;;;;22.42;12.43;;;;;;;11.65;100.00;100486.22;5084195;28;20523;-77
2022/10/15 05:23:53;;;;;;;18.75;11.82;;;;;;;11.61;100.00;100487.53;5059082;28;20028;-77
2022/10/15 05:26:39;;;;;;;19.85;10.95;;;;;;;11.58;100.00;100482.66;5044602;28;20041;-77
2022/10/15 05:29:04;;;;;;;19.88;11.35;;;;;;;11.53;100.00;100490.97;5066285;28;20032;-78
2022/10/15 05:31:32;;;;;;;17.33;11.50;;;;;;;11.50;100.00;100492.13;5083806;28;20363;-76
2022/10/15 05:34:06;;;;;;;20.20;11.57;;;;;;;11.48;100.00;100482.88;5057543;28;20029;-77
2022/10/15 05:36:35;;;;;;;23.40;13.00;;;;;;;11.46;100.00;100480.44;5070490;28;20024;-77
2022/10/15 05:39:03;;;;;;;22.25;13.13;;;;;;;11.48;100.00;100480.28;5052800;28;20041;-77
2022/10/15 05:41:33;;;;;;;24.77;13.82;;;;;;;11.53;100.00;100483.19;5054330;28;20033;-76
2022/10/15 05:43:58;;;;;;;18.13;11.43;;;;;;;11.49;100.00;100485.31;5064681;28;20485;-78
2022/10/15 05:46:27;;;;;;;26.17;12.57;;;;;;;11.46;100.00;100480.44;5058440;28;20079;-78
2022/10/15 05:48:55;;;;;;;23.23;12.80;;;;;;;11.43;100.00;100483.41;5035904;28;20076;-78
2022/10/15 05:51:21;;;;;;;21.13;12.65;;;;;;;11.43;100.00;100487.78;5037655;28;20101;-76
2022/10/15 05:53:52;;;;;;;19.02;11.20;;;;;;;11.41;100.00;100482.75;5039289;28;20056;-77
2022/10/15 05:56:18;;;;;;;23.10;13.25;;;;;;;11.38;100.00;100483.09;5040701;28;20024;-76
2022/10/15 05:58:43;;;;;;;20.45;12.50;;;;;;;11.34;100.00;100476.63;5054253;28;20078;-76
2022/10/15 06:01:10;;;;;;;25.42;11.57;;;;;;;11.35;100.00;100480.81;5051457;28;20095;-77
2022/10/15 06:03:38;;;;;;;24.75;12.32;;;;;;;11.32;100.00;100491.56;5040126;28;20055;-76
2022/10/15 06:06:04;;;;;;;25.48;13.18;;;;;;;11.27;100.00;100488.66;5070133;28;20045;-77
2022/10/15 06:08:34;;;;;;;23.42;13.02;;;;;;;11.25;100.00;100488.81;5057347;28;20551;-77
2022/10/15 06:11:03;;;;;;;20.25;11.32;;;;;;;11.21;100.00;100484.94;5067461;28;20047;-77
2022/10/15 06:13:28;;;;;;;19.08;10.80;;;;;;;11.16;100.00;100495.00;5080063;28;20050;-77
2022/10/15 06:15:54;;;;;;;19.02;11.18;;;;;;;11.16;100.00;100500.19;5060823;28;20033;-77
2022/10/15 06:18:19;;;;;;;20.23;11.43;;;;;;;11.16;100.00;100495.00;5056293;28;20029;-76
2022/10/15 06:20:52;;;;;;;17.98;10.88;;;;;;;11.17;100.00;100507.03;5056847;28;20040;-76
2022/10/15 06:23:18;;;;;;;18.60;10.82;;;;;;;11.16;100.00;100497.59;5043021;28;20037;-76
2022/10/15 06:25:43;;;;;;;18.02;10.77;;;;;;;11.16;100.00;100495.00;5057394;28;20036;-76
2022/10/15 06:28:09;;;;;;;21.23;11.98;;;;;;;11.18;100.00;100505.22;5063854;28;20033;-78
2022/10/15 06:30:40;;;;;;;18.58;11.23;;;;;;;11.19;100.00;100499.03;5055925;28;20312;-76
2022/10/15 06:33:05;;;;;;;21.40;11.10;;;;;;;11.22;100.00;100491.75;5074533;28;21116;-81
2022/10/15 06:35:34;;;;;;;16.35;10.95;;;;;;;11.26;100.00;100485.25;5071747;28;20029;-81
2022/10/15 06:38:01;;;;;;;28.20;15.38;;;;;;;11.30;100.00;100475.31;5072595;28;20036;-81
2022/10/15 06:40:26;;;;;;;32.30;15.88;;;;;;;11.36;100.00;100477.28;5072665;28;20303;-80
2022/10/15 06:42:52;;;;;;;37.45;17.70;;;;;;;11.39;100.00;100478.72;5042963;28;20031;-80
2022/10/15 06:45:17;;;;;;;28.50;15.20;;;;;;;11.43;100.00;100488.59;5047946;28;20024;-79
2022/10/15 06:47:42;;;;;;;28.30;15.20;;;;;;;11.48;100.00;100488.88;5061317;28;20028;-81
2022/10/15 06:50:08;;;;;;;35.45;19.40;;;;;;;11.60;100.00;100488.50;5075258;28;20424;-80
2022/10/15 06:52:35;;;;;;;37.40;18.90;;;;;;;11.65;100.00;100479.22;5071542;28;20029;-81
2022/10/15 06:55:01;;;;;;;40.63;20.42;;;;;;;11.74;100.00;100495.59;5070079;28;20530;-81
2022/10/15 06:57:27;;;;;;;36.08;20.08;;;;;;;11.76;100.00;100492.81;5045793;28;20494;-80
2022/10/15 06:59:53;;;;;;;43.22;21.30;;;;;;;11.82;100.00;100484.34;5066685;28;20024;-80
2022/10/15 07:02:18;;;;;;;51.03;22.38;;;;;;;11.92;100.00;100477.16;5040643;28;20490;-80
2022/10/15 07:04:45;;;;;;;38.67;20.05;;;;;;;11.91;100.00;100485.13;5056070;28;20401;-80
2022/10/15 07:07:16;;;;;;;46.30;23.33;;;;;;;12.04;100.00;100477.56;5051237;28;20659;-79
2022/10/15 07:09:42;;;;;;;46.92;22.63;;;;;;;12.08;100.00;100489.22;5050521;28;20082;-78
2022/10/15 07:12:08;;;;;;;50.10;24.17;;;;;;;12.26;100.00;100479.34;5050134;28;20405;-79
2022/10/15 07:14:33;;;;;;;41.70;21.55;;;;;;;12.32;100.00;100477.84;5058850;28;20037;-79
2022/10/15 07:17:00;;;;;;;44.17;22.10;;;;;;;12.34;100.00;100480.25;5056821;28;20022;-80
2022/10/15 07:19:27;;;;;;;46.50;24.88;;;;;;;12.37;100.00;100478.13;5083682;28;20029;-80
2022/10/15 07:21:52;;;;;;;46.17;22.58;;;;;;;12.40;100.00;100469.97;5048081;28;20036;-79
2022/10/15 07:24:18;;;;;;;44.30;22.88;;;;;;;12.42;100.00;100462.00;5053239;28;20033;-80
2022/10/15 07:26:45;;;;;;;47.80;23.65;;;;;;;12.45;100.00;100467.66;5058013;28;20043;-79
2022/10/15 07:29:11;;;;;;;40.53;21.63;;;;;;;12.46;100.00;100466.66;5069564;28;20037;-80
2022/10/15 07:31:36;;;;;;;46.42;23.55;;;;;;;12.46;100.00;100466.66;5057692;28;20036;-80
2022/10/15 07:34:02;;;;;;;45.00;22.15;;;;;;;12.56;100.00;100466.41;5056074;28;20081;-80
2022/10/15 07:36:27;;;;;;;48.95;23.88;;;;;;;12.58;100.00;100469.66;5057004;28;20350;-79
2022/10/15 07:38:53;;;;;;;45.38;22.17;;;;;;;12.61;100.00;100465.88;5056529;28;20097;-79
2022/10/15 07:41:18;;;;;;;44.22;22.40;;;;;;;12.68;100.00;100468.56;5055425;28;20473;-79
2022/10/15 07:43:44;;;;;;;46.78;22.98;;;;;;;12.76;100.00;100456.31;5060855;28;20037;-79
2022/10/15 07:46:10;;;;;;;42.05;20.73;;;;;;;12.79;100.00;100453.34;5050659;28;20028;-79
2022/10/15 07:48:36;;;;;;;40.33;20.75;;;;;;;12.81;100.00;100443.56;5052118;28;20040;-78
2022/10/15 07:51:04;;;;;;;46.13;21.40;;;;;;;12.82;100.00;100450.38;5054932;28;20044;-78
2022/10/15 07:53:30;;;;;;;39.47;20.13;;;;;;;12.90;100.00;100439.06;5061851;28;20062;-78
2022/10/15 07:56:05;;;;;;;37.60;20.05;;;;;;;13.02;100.00;100434.25;5059149;28;20036;-77
2022/10/15 07:58:33;;;;;;;42.08;18.85;;;;;;;13.14;100.00;100439.78;5074924;28;20043;-76
2022/10/15 08:01:03;;;;;;;36.72;19.23;;;;;;;13.19;100.00;100442.66;5062541;28;20078;-77
2022/10/15 08:03:29;;;;;;;36.35;18.77;;;;;;;13.18;100.00;100438.44;5058351;28;20106;-77
2022/10/15 08:05:55;;;;;;;35.97;20.05;;;;;;;13.21;100.00;100444.09;5060247;28;20469;-76
2022/10/15 08:08:22;;;;;;;35.78;18.77;;;;;;;13.35;100.00;100436.47;5060017;28;20028;-75
2022/10/15 08:10:48;;;;;;;33.50;18.25;;;;;;;13.50;100.00;100432.03;5039837;28;20467;-74
2022/10/15 08:13:14;;;;;;;31.75;16.02;;;;;;;13.55;100.00;100439.31;5057441;28;20064;-76
2022/10/15 08:15:42;;;;;;;29.00;16.00;;;;;;;13.60;100.00;100442.16;5059772;28;20048;-75
2022/10/15 08:18:11;;;;;;;25.90;14.65;;;;;;;13.86;100.00;100443.41;5064986;28;20028;-75
2022/10/15 08:20:37;;;;;;;25.73;14.25;;;;;;;14.02;100.00;100437.94;5059900;28;20091;-75
2022/10/15 08:23:04;;;;;;;24.65;13.48;;;;;;;13.83;100.00;100429.75;5066525;28;20465;-75
2022/10/15 08:25:31;;;;;;;26.25;14.63;;;;;;;13.76;100.00;100426.28;5050223;28;20094;-75
2022/10/15 08:27:57;;;;;;;23.25;13.48;;;;;;;13.78;100.00;100426.09;5062536;28;20389;-74
2022/10/15 08:30:23;;;;;;;24.58;12.88;;;;;;;13.75;100.00;100419.47;5062882;28;20028;-74
2022/10/15 08:32:49;;;;;;;20.42;12.18;;;;;;;13.88;100.00;100413.56;5062468;28;20036;-74
2022/10/15 08:35:14;;;;;;;25.27;12.90;;;;;;;13.92;100.00;100416.59;5056526;28;20033;-74
2022/10/15 08:37:40;;;;;;;23.63;12.43;;;;;;;14.00;100.00;100416.47;5062981;28;20033;-74
2022/10/15 08:40:06;;;;;;;16.60;10.75;;;;;;;14.08;100.00;100408.53;5057788;28;20029;-75
2022/10/15 08:42:39;;;;;;;15.80;9.95;;;;;;;14.51;100.00;100412.84;5062228;28;20124;-74
2022/10/15 08:45:11;;;;;;;18.08;10.93;;;;;;;15.48;100.00;100388.41;5044724;28;20383;-74
2022/10/15 08:47:44;;;;;;;15.13;8.93;;;;;;;16.19;99.93;100386.25;5045468;28;20399;-74
2022/10/15 08:50:17;;;;;;;13.13;7.77;;;;;;;16.39;95.52;100392.25;5062330;28;20446;-75
2022/10/15 08:52:48;;;;;;;9.70;6.25;;;;;;;15.85;96.03;100385.44;5067332;28;20036;-76
2022/10/15 08:55:16;;;;;;;12.73;6.38;;;;;;;15.63;99.09;100385.56;5046968;28;20405;-75
2022/10/15 08:57:48;;;;;;;8.95;5.65;;;;;;;15.61;100.00;100387.59;5078099;28;20043;-75
2022/10/15 09:00:31;;;;;;;16.80;5.28;;;;;;;15.60;100.00;100393.03;5055639;28;20071;-77
2022/10/15 09:03:21;;;;;;;8.02;4.95;;;;;;;15.30;100.00;100393.38;5060600;28;20124;-75
2022/10/15 09:06:20;;;;;;;10.95;6.78;;;;;;;15.15;100.00;100388.28;5046738;28;20416;-75
2022/10/15 09:08:57;;;;;;;14.07;6.63;;;;;;;14.95;100.00;100399.44;5061250;28;20036;-77
2022/10/15 09:11:52;;;;;;;12.15;7.40;;;;;;;14.85;100.00;100391.19;5063673;28;20123;-77
2022/10/15 09:14:22;;;;;;;14.10;7.28;;;;;;;14.92;100.00;100383.41;5058162;28;20393;-76
2022/10/15 09:16:49;;;;;;;10.57;6.50;;;;;;;14.93;100.00;100385.00;5043827;28;20071;-76
2022/10/15 09:19:20;;;;;;;14.13;6.55;;;;;;;14.96;100.00;100380.19;5039004;28;20085;-76
2022/10/15 09:21:47;;;;;;;10.20;6.20;;;;;;;14.93;100.00;100371.94;5053185;28;20032;-77
2022/10/15 09:24:20;;;;;;;10.23;5.30;;;;;;;15.04;100.00;100378.41;5060009;28;20046;-78
2022/10/15 09:27:18;;;;;;;12.15;5.32;;;;;;;15.12;100.00;100371.19;5057577;28;20028;-78
2022/10/15 09:29:47;;;;;;;10.70;5.25;;;;;;;15.25;100.00;100372.25;5079245;28;20028;-76
2022/10/15 09:32:41;;;;;;;8.90;5.40;;;;;;;15.28;100.00;100366.63;5063127;28;20138;-78
2022/10/15 09:35:20;;;;;;;12.10;5.40;;;;;;;15.20;100.00;100365.00;5081035;28;20473;-79
2022/10/15 09:38:17;;;;;;;7.85;4.93;;;;;;;15.40;100.00;100365.03;5073882;28;20487;-79
2022/10/15 09:41:17;;;;;;;6.25;3.60;;;;;;;15.34;100.00;100356.19;5026730;28;20156;-78
2022/10/15 09:43:49;;;;;;;7.47;3.30;;;;;;;15.31;100.00;100368.84;5056638;28;20038;-77
2022/10/15 09:46:15;;;;;;;5.82;3.33;;;;;;;15.23;100.00;100374.25;5057699;28;20033;-81
2022/10/15 09:49:05;;;;;;;4.10;2.42;;;;;;;15.28;100.00;100370.06;5041901;28;20048;-80
2022/10/15 09:51:42;;;;;;;5.15;2.25;;;;;;;15.25;100.00;100369.63;5046526;28;20033;-82
2022/10/15 09:54:33;;;;;;;5.68;1.92;;;;;;;15.25;100.00;100369.63;5046384;28;20512;-78
2022/10/15 09:56:58;;;;;;;2.42;1.80;;;;;;;15.23;100.00;100364.59;5045737;28;20033;-80
2022/10/15 09:59:24;;;;;;;3.50;1.92;;;;;;;15.19;100.00;100363.41;5063031;28;20044;-78
2022/10/15 10:02:11;;;;;;;4.93;1.77;;;;;;;15.22;100.00;100359.56;5076942;28;20032;-76
2022/10/15 10:04:37;;;;;;;5.72;1.83;;;;;;;15.17;100.00;100352.34;5062937;28;20036;-78
2022/10/15 10:07:08;;;;;;;4.95;2.17;;;;;;;15.19;100.00;100350.34;5062850;28;20090;-77
2022/10/15 10:09:45;;;;;;;5.53;1.90;;;;;;;15.15;100.00;100349.13;5045846;28;20029;-80
2022/10/15 10:12:19;;;;;;;3.65;1.70;;;;;;;15.09;100.00;100355.94;5050436;28;20397;-76
2022/10/15 10:14:53;;;;;;;3.88;2.00;;;;;;;15.09;100.00;100358.56;5073178;28;20040;-79
2022/10/15 10:17:21;;;;;;;1.80;1.40;;;;;;;14.97;100.00;100353.09;5092997;28;20040;-77
2022/10/15 10:20:09;;;;;;;3.83;1.63;;;;;;;15.02;100.00;100360.31;5060783;28;20081;-77
2022/10/15 10:22:47;;;;;;;2.10;1.02;;;;;;;14.97;100.00;100355.72;5078616;28;20033;-78
2022/10/15 10:25:25;;;;;;;2.03;1.25;;;;;;;14.99;100.00;100358.94;5077782;28;20033;-78
2022/10/15 10:27:51;;;;;;;2.13;0.85;;;;;;;15.01;100.00;100368.34;5044336;28;20041;-78
2022/10/15 10:30:16;;;;;;;1.50;0.98;;;;;;;15.09;100.00;100368.19;5047761;28;20032;-80
2022/10/15 10:32:44;;;;;;;1.65;0.60;;;;;;;15.09;100.00;100369.00;5046472;28;20044;-78
2022/10/15 10:35:21;;;;;;;3.13;0.68;;;;;;;15.12;100.00;100359.94;5077457;28;20074;-76
2022/10/15 10:37:47;;;;;;;1.25;0.40;;;;;;;15.07;100.00;100360.56;5076974;28;20079;-78
2022/10/15 10:40:22;;;;;;;1.95;0.95;;;;;;;15.13;100.00;100349.31;5055467;28;20096;-80
2022/10/15 10:42:47;;;;;;;2.40;0.90;;;;;;;15.20;100.00;100354.56;5069901;28;20032;-78
2022/10/15 10:45:21;;;;;;;0.93;0.60;;;;;;;15.13;100.00;100351.13;5059820;28;20149;-77
2022/10/15 10:47:47;;;;;;;4.60;1.25;;;;;;;15.31;100.00;100353.16;5058258;28;20032;-78
2022/10/15 10:50:45;;;;;;;3.00;0.95;;;;;;;15.33;100.00;100353.78;5070860;28;20749;-77
2022/10/15 10:53:23;;;;;;;3.00;1.40;;;;;;;15.32;100.00;100345.13;5009421;28;20453;-75
2022/10/15 10:55:51;;;;;;;0.95;0.70;;;;;;;15.40;100.00;100348.56;5054698;28;20396;-76
2022/10/15 10:58:22;;;;;;;1.52;0.60;;;;;;;15.45;100.00;100344.38;5069144;28;20397;-76
2022/10/15 11:00:51;;;;;;;4.43;0.57;;;;;;;15.61;100.00;100342.38;5051239;28;20040;-77
2022/10/15 11:03:26;;;;;;;1.40;0.60;;;;;;;15.55;100.00;100349.19;5058532;28;20106;-76
2022/10/15 11:06:37;;;;;;;1.77;0.70;;;;;;;15.57;100.00;100345.38;5038428;28;20033;-75
2022/10/15 11:09:09;;;;;;;0.88;0.65;;;;;;;15.61;100.00;100337.94;5052224;28;20045;-75
2022/10/15 11:11:51;;;;;;;7.32;0.50;;;;;;;15.77;100.00;100328.94;5055042;28;20049;-76
2022/10/15 11:14:49;;;;;;;0.68;0.52;;;;;;;15.76;100.00;100333.38;5054847;28;20040;-76
2022/10/15 11:17:33;;;;;;;4.35;0.73;;;;;;;15.81;100.00;100324.91;5049559;28;20122;-77
2022/10/15 11:20:13;;;;;;;0.50;0.47;;;;;;;15.82;100.00;100316.03;5049695;28;20036;-76
2022/10/15 11:23:12;;;;;;;3.90;0.60;;;;;;;15.98;100.00;100320.06;5056956;28;20097;-85
2022/10/15 11:25:49;;;;;;;2.63;1.23;;;;;;;15.93;100.00;100314.63;5053807;28;20024;-77